createdAt,value
2019-05-07T00:00:46.738Z,14.80
2019-05-07T00:03:16.314Z,14.47
2019-05-07T00:05:45.852Z,15.00
2019-05-07T00:08:15.347Z,14.23
2019-05-07T00:10:44.802Z,13.25
2019-05-07T00:13:14.372Z,13.40
2019-05-07T00:15:43.871Z,13.68
2019-05-07T00:18:13.332Z,12.25
2019-05-07T00:20:42.791Z,9.90
2019-05-07T00:23:12.499Z,10.18
2019-05-07T00:25:42.387Z,9.83
2019-05-07T00:28:12.340Z,9.95
2019-05-07T00:30:42.642Z,9.13
2019-05-07T00:33:13.167Z,8.90
2019-05-07T00:35:44.448Z,7.50
2019-05-07T00:38:15.581Z,8.05
2019-05-07T00:41:02.891Z,8.20
2019-05-07T00:43:34.118Z,7.92
2019-05-07T00:46:05.571Z,8.48
2019-05-07T00:48:35.059Z,8.70
2019-05-07T00:51:22.737Z,9.00
2019-05-07T00:53:52.459Z,8.90
2019-05-07T00:56:22.421Z,9.08
2019-05-07T00:58:52.702Z,8.88
2019-05-07T01:01:23.403Z,9.38
2019-05-07T01:03:53.588Z,9.23
2019-05-07T01:06:26.345Z,9.75
2019-05-07T01:08:55.657Z,9.38
2019-05-07T01:11:25.522Z,10.25
2019-05-07T01:13:55.011Z,10.10
2019-05-07T01:16:24.493Z,9.65
2019-05-07T01:18:53.950Z,10.43
2019-05-07T01:21:23.811Z,10.93
2019-05-07T01:23:53.376Z,12.33
2019-05-07T01:26:22.837Z,12.85
2019-05-07T01:29:02.831Z,13.13
2019-05-07T01:31:35.909Z,14.00
2019-05-07T01:34:13.061Z,14.20
2019-05-07T01:36:42.908Z,13.88
2019-05-07T01:39:13.098Z,14.45
2019-05-07T01:41:43.370Z,15.28
2019-05-07T01:44:12.947Z,15.83
2019-05-07T01:46:43.371Z,16.15
2019-05-07T01:49:13.929Z,15.75
2019-05-07T01:51:44.452Z,16.45
2019-05-07T01:54:13.955Z,16.05
2019-05-07T01:56:43.776Z,16.27
2019-05-07T01:59:13.232Z,16.80
2019-05-07T02:01:43.147Z,15.78
2019-05-07T02:04:14.267Z,15.40
2019-05-07T02:07:02.823Z,16.70
2019-05-07T02:09:42.334Z,16.40
2019-05-07T02:12:15.791Z,15.68
2019-05-07T02:14:45.295Z,16.00
2019-05-07T02:17:15.153Z,14.83
2019-05-07T02:19:44.650Z,14.68
2019-05-07T02:22:14.164Z,15.80
2019-05-07T02:24:43.612Z,15.60
2019-05-07T02:27:13.112Z,15.18
2019-05-07T02:29:43.093Z,14.87
2019-05-07T02:32:13.442Z,15.75
2019-05-07T02:34:44.210Z,15.10
2019-05-07T02:37:15.740Z,14.90
2019-05-07T02:39:49.856Z,15.60
2019-05-07T02:42:19.349Z,15.30
2019-05-07T02:44:59.763Z,15.63
2019-05-07T02:47:33.071Z,15.08
2019-05-07T02:50:04.242Z,16.37
2019-05-07T02:52:53.364Z,15.45
2019-05-07T02:55:23.511Z,14.60
2019-05-07T02:57:54.211Z,15.53
2019-05-07T03:00:24.518Z,16.73
2019-05-07T03:02:54.098Z,15.20
2019-05-07T03:05:23.588Z,15.43
2019-05-07T03:07:53.728Z,15.72
2019-05-07T03:10:24.220Z,15.95
2019-05-07T03:12:54.010Z,15.45
2019-05-07T03:15:24.295Z,15.28
2019-05-07T03:17:54.090Z,14.90
2019-05-07T03:20:43.040Z,15.65
2019-05-07T03:23:14.326Z,15.28
2019-05-07T03:25:54.124Z,15.90
2019-05-07T03:28:24.458Z,14.75
2019-05-07T03:30:57.152Z,16.02
2019-05-07T03:33:29.755Z,16.07
2019-05-07T03:36:06.298Z,15.48
2019-05-07T03:38:33.509Z,16.45
2019-05-07T03:41:04.224Z,16.62
2019-05-07T03:43:34.124Z,17.00
2019-05-07T03:46:05.434Z,17.30
2019-05-07T03:48:36.932Z,16.75
2019-05-07T03:51:06.505Z,17.35
2019-05-07T03:53:35.993Z,17.05
2019-05-07T03:56:05.522Z,17.17
2019-05-07T03:58:35.017Z,17.55
2019-05-07T04:01:04.816Z,17.42
2019-05-07T04:03:34.711Z,17.00
2019-05-07T04:06:04.533Z,16.27
2019-05-07T04:08:34.053Z,17.82
2019-05-07T04:11:04.099Z,17.57
2019-05-07T04:13:34.061Z,17.17
2019-05-07T04:16:04.276Z,16.87
2019-05-07T04:18:34.261Z,17.05
2019-05-07T04:21:04.196Z,16.52
2019-05-07T04:23:34.543Z,17.12
2019-05-07T04:26:05.870Z,16.85
2019-05-07T04:28:54.228Z,17.02
2019-05-07T04:31:25.548Z,16.60
2019-05-07T04:33:57.689Z,17.07
2019-05-07T04:36:28.963Z,17.20
2019-05-07T04:38:58.422Z,16.95
2019-05-07T04:41:28.306Z,15.93
2019-05-07T04:43:58.425Z,15.83
2019-05-07T04:46:27.929Z,17.15
2019-05-07T04:48:59.615Z,15.80
2019-05-07T04:51:33.753Z,16.17
2019-05-07T04:54:03.800Z,16.65
2019-05-07T04:56:33.827Z,16.10
2019-05-07T04:59:03.953Z,16.30
2019-05-07T05:01:35.063Z,16.70
2019-05-07T05:04:20.708Z,16.77
2019-05-07T05:06:36.066Z,17.02
2019-05-07T05:09:06.939Z,16.25
2019-05-07T05:11:36.447Z,18.12
2019-05-07T05:14:07.894Z,17.90
2019-05-07T05:16:37.159Z,17.15
2019-05-07T05:19:06.626Z,17.25
2019-05-07T05:21:49.938Z,18.35
2019-05-07T05:24:24.051Z,17.12
2019-05-07T05:26:53.512Z,16.95
2019-05-07T05:29:23.035Z,17.05
2019-05-07T05:31:52.938Z,17.30
2019-05-07T05:34:22.584Z,16.60
2019-05-07T05:36:53.204Z,16.57
2019-05-07T05:39:23.207Z,15.68
2019-05-07T05:41:54.303Z,14.20
2019-05-07T05:44:28.375Z,15.43
2019-05-07T05:46:57.882Z,15.13
2019-05-07T05:49:27.333Z,15.55
2019-05-07T05:51:58.531Z,14.95
2019-05-07T05:54:32.426Z,14.98
2019-05-07T05:57:09.701Z,16.62
2019-05-07T05:59:56.672Z,14.90
2019-05-07T06:02:43.996Z,15.40
2019-05-07T06:05:22.153Z,15.88
2019-05-07T06:07:53.741Z,14.73
2019-05-07T06:10:42.452Z,14.98
2019-05-07T06:13:13.628Z,14.95
2019-05-07T06:15:53.749Z,13.72
2019-05-07T06:18:41.878Z,14.00
2019-05-07T06:21:25.227Z,12.70
2019-05-07T06:23:59.319Z,12.03
2019-05-07T06:26:28.949Z,12.75
2019-05-07T06:28:58.785Z,13.48
2019-05-07T06:31:28.368Z,13.50
2019-05-07T06:33:57.949Z,10.88
2019-05-07T06:36:28.112Z,11.90
2019-05-07T06:39:01.824Z,12.43
2019-05-07T06:41:52.557Z,12.78
2019-05-07T06:44:23.058Z,11.05
2019-05-07T06:46:52.843Z,11.63
2019-05-07T06:49:22.456Z,11.25
2019-05-07T06:51:52.937Z,11.85
2019-05-07T06:54:23.386Z,11.80
2019-05-07T06:56:52.888Z,11.28
2019-05-07T06:59:27.148Z,9.88
2019-05-07T07:02:02.355Z,10.70
2019-05-07T07:04:35.632Z,10.32
2019-05-07T07:07:26.326Z,9.30
2019-05-07T07:09:48.120Z,8.95
2019-05-07T07:12:25.548Z,7.40
2019-05-07T07:14:53.714Z,8.25
2019-05-07T07:17:23.201Z,8.33
2019-05-07T07:19:53.224Z,7.58
2019-05-07T07:22:23.079Z,4.58
2019-05-07T07:24:53.118Z,5.72
2019-05-07T07:27:22.896Z,6.05
2019-05-07T07:30:04.455Z,6.25
2019-05-07T07:32:35.646Z,6.03
2019-05-07T07:35:08.875Z,6.10
2019-05-07T07:37:42.997Z,5.40
2019-05-07T07:42:56.468Z,5.08
2019-05-07T07:45:26.033Z,4.35
2019-05-07T07:47:55.562Z,5.22
2019-05-07T07:50:25.071Z,5.35
2019-05-07T07:52:54.662Z,6.67
2019-05-07T07:55:25.791Z,6.58
2019-05-07T07:58:11.941Z,5.60
2019-05-07T08:00:43.095Z,4.85
2019-05-07T08:03:14.317Z,4.92
2019-05-07T08:05:43.869Z,4.58
2019-05-07T08:08:13.683Z,4.20
2019-05-07T08:10:43.503Z,4.55
2019-05-07T08:13:12.951Z,4.60
2019-05-07T08:15:43.039Z,4.72
2019-05-07T08:18:12.867Z,4.60
2019-05-07T08:20:43.097Z,4.70
2019-05-07T08:23:12.718Z,3.98
2019-05-07T08:25:48.408Z,3.37
2019-05-07T08:28:23.132Z,3.72
2019-05-07T08:31:02.981Z,3.40
2019-05-07T08:33:34.128Z,3.50
2019-05-07T08:36:05.669Z,3.60
2019-05-07T08:38:36.865Z,4.00
2019-05-07T08:41:06.427Z,3.30
2019-05-07T08:43:35.933Z,3.22
2019-05-07T08:46:23.562Z,3.10
2019-05-07T08:48:54.419Z,2.92
2019-05-07T08:51:23.982Z,2.90
2019-05-07T08:54:05.691Z,3.40
2019-05-07T08:56:36.293Z,3.60
2019-05-07T08:59:08.331Z,4.15
2019-05-07T09:01:39.947Z,3.60
2019-05-07T09:04:10.000Z,3.67
2019-05-07T09:06:39.557Z,3.10
2019-05-07T09:09:13.492Z,2.00
2019-05-07T09:11:43.306Z,1.67
2019-05-07T09:14:14.151Z,2.05
2019-05-07T09:16:43.675Z,2.05
2019-05-07T09:19:14.180Z,4.12
2019-05-07T09:21:43.701Z,3.10
2019-05-07T09:24:14.669Z,3.10
2019-05-07T09:26:45.835Z,2.52
2019-05-07T09:29:17.526Z,3.08
2019-05-07T09:31:48.686Z,2.60
2019-05-07T09:34:26.022Z,2.55
2019-05-07T09:37:02.250Z,2.70
2019-05-07T09:39:32.418Z,2.60
2019-05-07T09:42:02.473Z,2.75
2019-05-07T09:44:32.512Z,2.70
2019-05-07T09:47:02.670Z,2.80
2019-05-07T09:49:32.668Z,2.85
2019-05-07T09:52:04.323Z,2.30
2019-05-07T09:54:33.472Z,2.50
2019-05-07T09:57:03.188Z,2.17
2019-05-07T09:59:33.016Z,2.17
2019-05-07T10:02:02.672Z,1.90
2019-05-07T10:04:32.758Z,2.33
2019-05-07T10:07:02.734Z,2.60
2019-05-07T10:09:32.943Z,2.33
2019-05-07T10:12:16.478Z,2.90
2019-05-07T10:14:46.143Z,2.30
2019-05-07T10:17:26.162Z,1.98
2019-05-07T10:19:55.716Z,1.92
2019-05-07T10:22:25.303Z,1.92
2019-05-07T10:24:54.888Z,1.90
2019-05-07T10:27:24.454Z,1.95
2019-05-07T10:29:54.325Z,1.90
2019-05-07T10:32:24.133Z,2.00
2019-05-07T10:34:55.170Z,2.00
2019-05-07T10:37:27.387Z,2.00
2019-05-07T10:39:56.029Z,2.00
2019-05-07T10:42:25.535Z,2.00
2019-05-07T10:45:03.336Z,2.10
2019-05-07T10:47:52.024Z,2.02
2019-05-07T10:50:35.476Z,2.15
2019-05-07T10:52:54.309Z,2.30
2019-05-07T10:55:23.845Z,2.10
2019-05-07T10:57:53.416Z,2.62
2019-05-07T11:00:25.473Z,2.70
2019-05-07T11:02:55.002Z,2.25
2019-05-07T11:05:24.516Z,2.30
2019-05-07T11:07:54.142Z,2.62
2019-05-07T11:10:23.797Z,2.20
2019-05-07T11:12:53.351Z,2.12
2019-05-07T11:15:22.977Z,2.33
2019-05-07T11:17:56.520Z,2.60
2019-05-07T11:20:26.098Z,2.37
2019-05-07T11:22:55.692Z,2.00
2019-05-07T11:25:25.571Z,2.17
2019-05-07T11:27:55.066Z,2.50
2019-05-07T11:30:24.552Z,2.15
2019-05-07T11:32:53.992Z,1.98
2019-05-07T11:35:23.541Z,2.12
2019-05-07T11:37:52.979Z,2.62
2019-05-07T11:40:23.087Z,2.15
2019-05-07T11:43:12.897Z,2.30
2019-05-07T11:45:46.201Z,2.45
2019-05-07T11:48:18.084Z,2.58
2019-05-07T11:51:03.815Z,2.72
2019-05-07T11:53:29.948Z,2.40
2019-05-07T11:55:59.401Z,2.65
2019-05-07T11:58:29.303Z,2.47
2019-05-07T12:01:09.466Z,3.00
2019-05-07T12:03:38.925Z,2.33
2019-05-07T12:06:09.449Z,2.35
2019-05-07T12:08:48.132Z,2.12
2019-05-07T12:11:11.923Z,3.45
2019-05-07T12:13:42.767Z,2.65
2019-05-07T12:16:14.222Z,2.40
2019-05-07T12:18:43.802Z,2.22
2019-05-07T12:21:20.254Z,2.30
2019-05-07T12:23:44.590Z,2.45
2019-05-07T12:26:14.436Z,2.22
2019-05-07T12:28:43.992Z,2.52
2019-05-07T12:31:15.073Z,2.37
2019-05-07T12:33:46.272Z,2.62
2019-05-07T12:36:16.095Z,2.80
2019-05-07T12:38:45.607Z,2.40
2019-05-07T12:41:34.153Z,2.30
2019-05-07T12:44:06.675Z,2.00
2019-05-07T12:46:37.284Z,1.90
2019-05-07T12:49:08.066Z,2.05
2019-05-07T12:51:48.205Z,2.00
2019-05-07T12:54:19.507Z,2.30
2019-05-07T12:56:49.177Z,2.90
2019-05-07T12:59:18.742Z,2.77
2019-05-07T13:02:16.688Z,2.55
2019-05-07T13:04:37.803Z,2.40
2019-05-07T13:07:24.129Z,2.12
2019-05-07T13:09:54.232Z,1.90
2019-05-07T13:12:24.103Z,1.98
2019-05-07T13:14:54.967Z,2.20
2019-05-07T13:17:24.433Z,4.53
2019-05-07T13:19:54.250Z,2.10
2019-05-07T13:22:23.707Z,1.92
2019-05-07T13:24:53.232Z,1.85
2019-05-07T13:27:23.238Z,1.98
2019-05-07T13:29:53.400Z,2.12
2019-05-07T13:32:24.234Z,2.45
2019-05-07T13:34:54.266Z,2.10
2019-05-07T13:37:28.556Z,2.00
2019-05-07T13:40:02.558Z,2.50
2019-05-07T13:42:41.911Z,1.98
2019-05-07T13:45:15.975Z,1.60
2019-05-07T13:47:46.069Z,2.12
2019-05-07T13:50:15.980Z,2.10
2019-05-07T13:52:45.496Z,2.08
2019-05-07T13:55:15.121Z,2.20
2019-05-07T13:57:44.713Z,2.40
2019-05-07T14:00:16.868Z,2.00
2019-05-07T14:02:46.469Z,2.20
2019-05-07T14:05:16.107Z,2.10
2019-05-07T14:07:45.948Z,2.33
2019-05-07T14:10:15.685Z,2.10
2019-05-07T14:12:45.272Z,2.37
2019-05-07T14:15:14.995Z,1.90
2019-05-07T14:17:44.815Z,2.00
2019-05-07T14:20:14.852Z,2.15
2019-05-07T14:22:44.677Z,2.37
2019-05-07T14:25:14.606Z,1.98
2019-05-07T14:27:44.226Z,2.40
2019-05-07T14:30:14.538Z,2.25
2019-05-07T14:32:48.926Z,2.45
2019-05-07T14:35:32.367Z,2.58
2019-05-07T14:38:03.708Z,2.42
2019-05-07T14:40:33.272Z,2.50
2019-05-07T14:43:07.423Z,2.72
2019-05-07T14:45:37.406Z,2.30
2019-05-07T14:48:06.902Z,2.58
2019-05-07T14:50:36.743Z,2.10
2019-05-07T14:53:06.306Z,2.30
2019-05-07T14:55:36.278Z,2.50
2019-05-07T14:58:06.146Z,2.80
2019-05-07T15:00:35.946Z,2.50
2019-05-07T15:03:05.536Z,2.05
2019-05-07T15:05:35.128Z,2.65
2019-05-07T15:08:10.461Z,2.40
2019-05-07T15:10:36.097Z,2.67
2019-05-07T15:13:05.577Z,2.55
2019-05-07T15:15:36.231Z,2.95
2019-05-07T15:18:23.921Z,3.20
2019-05-07T15:20:53.943Z,2.40
2019-05-07T15:23:25.727Z,2.55
2019-05-07T15:25:56.147Z,2.58
2019-05-07T15:28:26.249Z,2.45
2019-05-07T15:31:09.736Z,2.40
2019-05-07T15:33:39.326Z,2.58
2019-05-07T15:36:08.830Z,2.55
2019-05-07T15:38:38.313Z,2.65
2019-05-07T15:41:07.875Z,2.62
2019-05-07T15:43:37.707Z,2.50
2019-05-07T15:46:07.373Z,2.77
2019-05-07T15:48:36.914Z,3.25
2019-05-07T15:51:06.481Z,2.90
2019-05-07T15:53:42.608Z,2.72
2019-05-07T15:56:12.444Z,44.03
2019-05-07T15:58:42.677Z,4.42
2019-05-07T16:01:13.426Z,3.02
2019-05-07T16:03:44.635Z,2.90
2019-05-07T16:06:14.187Z,2.90
2019-05-07T16:08:45.354Z,2.47
2019-05-07T16:11:15.200Z,2.70
2019-05-07T16:13:47.518Z,2.80
2019-05-07T16:16:17.062Z,2.47
2019-05-07T16:19:07.054Z,3.22
2019-05-07T16:21:36.531Z,2.80
2019-05-07T16:24:06.090Z,2.75
2019-05-07T16:26:35.729Z,2.90
2019-05-07T16:29:05.178Z,3.02
2019-05-07T16:31:34.738Z,2.98
2019-05-07T16:34:04.260Z,2.80
2019-05-07T16:36:33.763Z,2.83
2019-05-07T16:39:04.112Z,2.90
2019-05-07T16:41:34.779Z,2.80
2019-05-07T16:44:06.479Z,2.98
2019-05-07T16:46:35.941Z,3.33
2019-05-07T16:49:05.391Z,3.10
2019-05-07T16:51:34.892Z,3.10
2019-05-07T16:54:04.695Z,3.40
2019-05-07T16:56:34.213Z,3.08
2019-05-07T16:59:07.546Z,3.15
2019-05-07T17:01:37.358Z,3.05
2019-05-07T17:04:07.181Z,2.90
2019-05-07T17:06:36.720Z,2.83
2019-05-07T17:09:14.471Z,2.77
2019-05-07T17:11:44.007Z,2.80
2019-05-07T17:14:13.529Z,3.27
2019-05-07T17:16:42.975Z,3.12
2019-05-07T17:19:14.052Z,2.87
2019-05-07T17:21:44.599Z,2.90
2019-05-07T17:24:14.202Z,3.27
2019-05-07T17:26:44.138Z,3.33
2019-05-07T17:29:13.615Z,3.33
2019-05-07T17:31:43.154Z,3.20
2019-05-07T17:34:12.659Z,3.17
2019-05-07T17:36:42.419Z,3.10
2019-05-07T17:39:12.310Z,3.00
2019-05-07T17:41:42.908Z,2.90
2019-05-07T17:44:12.692Z,3.08
2019-05-07T17:46:43.187Z,3.92
2019-05-07T17:49:13.701Z,3.25
2019-05-07T17:51:43.824Z,3.08
2019-05-07T17:54:14.629Z,2.77
2019-05-07T17:56:44.276Z,3.22
2019-05-07T17:59:13.908Z,3.30
2019-05-07T18:01:50.111Z,3.15
2019-05-07T18:04:19.362Z,3.80
2019-05-07T18:06:48.873Z,3.45
2019-05-07T18:09:18.490Z,2.90
2019-05-07T18:11:47.970Z,2.92
2019-05-07T18:14:17.502Z,3.30
2019-05-07T18:16:57.998Z,3.33
2019-05-07T18:19:29.096Z,3.30
2019-05-07T18:21:58.593Z,2.98
2019-05-07T18:24:28.191Z,3.33
2019-05-07T18:26:58.744Z,3.15
2019-05-07T18:29:28.227Z,3.50
2019-05-07T18:32:00.523Z,3.67
2019-05-07T18:34:32.085Z,3.42
2019-05-07T18:37:02.146Z,4.08
2019-05-07T18:39:32.414Z,4.20
2019-05-07T18:42:02.820Z,3.95
2019-05-07T18:44:32.460Z,4.42
2019-05-07T18:47:02.474Z,4.35
2019-05-07T18:49:32.268Z,4.75
2019-05-07T18:52:02.912Z,4.20
2019-05-07T18:54:34.349Z,4.40
2019-05-07T18:57:03.863Z,4.05
2019-05-07T18:59:35.095Z,4.10
2019-05-07T19:02:05.214Z,4.62
2019-05-07T19:04:35.326Z,4.22
2019-05-07T19:07:04.838Z,6.12
2019-05-07T19:09:34.506Z,9.38
2019-05-07T19:12:05.061Z,7.85
2019-05-07T19:14:34.614Z,5.15
2019-05-07T19:17:04.504Z,26.55
2019-05-07T19:19:34.074Z,6.33
2019-05-07T19:22:03.576Z,7.90
2019-05-07T19:24:44.326Z,5.92
2019-05-07T19:27:04.761Z,5.25
2019-05-07T19:29:34.547Z,4.40
2019-05-07T19:32:06.026Z,4.20
2019-05-07T19:34:35.563Z,4.20
2019-05-07T19:37:06.097Z,4.58
2019-05-07T19:39:35.599Z,5.97
2019-05-07T19:42:05.315Z,4.53
2019-05-07T19:44:35.204Z,4.70
2019-05-07T19:47:05.739Z,4.53
2019-05-07T19:49:35.201Z,4.90
2019-05-07T19:52:05.381Z,5.30
2019-05-07T19:54:35.184Z,5.50
2019-05-07T19:57:04.912Z,5.33
2019-05-07T19:59:34.707Z,5.30
2019-05-07T20:02:07.580Z,4.90
2019-05-07T20:04:37.041Z,5.17
2019-05-07T20:07:07.009Z,4.87
2019-05-07T20:09:38.104Z,5.47
2019-05-07T20:12:08.107Z,5.20
2019-05-07T20:14:37.848Z,4.55
2019-05-07T20:17:07.462Z,5.80
2019-05-07T20:19:36.957Z,5.12
2019-05-07T20:22:06.939Z,4.72
2019-05-07T20:24:36.366Z,5.60
2019-05-07T20:27:06.022Z,6.00
2019-05-07T20:29:35.571Z,4.97
2019-05-07T20:32:05.116Z,5.15
2019-05-07T20:34:34.700Z,5.15
2019-05-07T20:37:04.664Z,5.00
2019-05-07T20:39:34.176Z,5.00
2019-05-07T20:42:04.091Z,5.72
2019-05-07T20:44:33.891Z,5.30
2019-05-07T20:47:03.480Z,5.37
2019-05-07T20:49:33.028Z,5.78
2019-05-07T20:52:03.042Z,5.80
2019-05-07T20:54:43.228Z,5.70
2019-05-07T20:57:22.304Z,5.75
2019-05-07T20:59:51.712Z,5.47
2019-05-07T21:02:22.742Z,5.70
2019-05-07T21:04:52.923Z,5.67
2019-05-07T21:07:22.549Z,5.72
2019-05-07T21:09:53.003Z,6.00
2019-05-07T21:12:22.799Z,6.60
2019-05-07T21:14:52.671Z,5.83
2019-05-07T21:17:22.762Z,5.55
2019-05-07T21:19:52.318Z,5.80
2019-05-07T21:22:22.799Z,5.80
2019-05-07T21:24:53.211Z,5.83
2019-05-07T21:27:23.264Z,6.55
2019-05-07T21:29:54.103Z,6.37
2019-05-07T21:32:23.668Z,5.95
2019-05-07T21:34:53.115Z,5.60
2019-05-07T21:37:23.336Z,6.10
2019-05-07T21:39:53.250Z,6.05
2019-05-07T21:42:23.099Z,6.20
2019-05-07T21:44:52.894Z,6.15
2019-05-07T21:47:22.396Z,5.60
2019-05-07T21:49:54.898Z,6.58
2019-05-07T21:52:24.967Z,6.33
2019-05-07T21:54:56.356Z,6.37
2019-05-07T21:57:45.629Z,6.47
2019-05-07T22:00:21.965Z,6.03
2019-05-07T22:02:52.811Z,6.60
2019-05-07T22:05:22.730Z,7.62
2019-05-07T22:07:54.435Z,6.78
2019-05-07T22:10:24.044Z,7.53
2019-05-07T22:12:54.639Z,8.15
2019-05-07T22:15:24.233Z,7.03
2019-05-07T22:17:54.052Z,7.10
2019-05-07T22:20:23.877Z,7.65
2019-05-07T22:22:53.366Z,7.55
2019-05-07T22:25:22.921Z,7.60
2019-05-07T22:27:54.391Z,8.00
2019-05-07T22:30:34.734Z,7.05
2019-05-07T22:33:05.936Z,7.85
2019-05-07T22:35:37.104Z,6.90
2019-05-07T22:38:25.122Z,7.65
2019-05-07T22:40:55.955Z,7.80
2019-05-07T22:43:26.521Z,7.58
2019-05-07T22:45:56.112Z,7.75
2019-05-07T22:48:25.960Z,7.80
2019-05-07T22:50:55.398Z,7.33
2019-05-07T22:53:24.871Z,7.65
2019-05-07T22:55:57.229Z,7.72
2019-05-07T22:58:28.365Z,7.78
2019-05-07T23:01:02.571Z,7.83
2019-05-07T23:03:32.344Z,8.23
2019-05-07T23:06:08.003Z,8.18
2019-05-07T23:08:38.766Z,8.30
2019-05-07T23:11:08.371Z,7.83
2019-05-07T23:13:38.056Z,8.30
2019-05-07T23:16:07.623Z,7.80
2019-05-07T23:18:37.068Z,7.78
2019-05-07T23:21:06.563Z,8.85
2019-05-07T23:23:36.030Z,8.40
2019-05-07T23:26:05.838Z,7.72
2019-05-07T23:28:35.350Z,8.43
2019-05-07T23:31:04.813Z,8.30
2019-05-07T23:33:34.332Z,8.00
2019-05-07T23:36:04.252Z,8.40
2019-05-07T23:38:33.774Z,8.03
2019-05-07T23:41:22.323Z,8.45
2019-05-07T23:44:12.625Z,7.67
2019-05-07T23:46:44.894Z,8.78
2019-05-07T23:49:13.603Z,8.10
2019-05-07T23:51:43.133Z,8.00
2019-05-07T23:54:12.567Z,8.90
2019-05-07T23:56:43.003Z,8.25
2019-05-07T23:59:14.925Z,8.10
